createdAt,value
2022-08-28T00:00:19.804Z,20.920000
2022-08-28T00:05:31.750Z,20.700000
2022-08-28T00:10:19.616Z,20.412500
2022-08-28T00:15:19.552Z,20.183333
2022-08-28T00:20:19.547Z,20.045455
2022-08-28T00:25:19.586Z,20.100000
2022-08-28T00:30:19.940Z,20.100000
2022-08-28T00:36:07.560Z,20.044444
2022-08-28T00:40:20.042Z,19.942857
2022-08-28T00:45:34.850Z,19.675000
2022-08-28T00:50:19.557Z,19.511111
2022-08-28T00:55:19.610Z,19.576923
2022-08-28T01:00:43.588Z,19.620000
2022-08-28T01:05:31.475Z,20.409091
2022-08-28T01:10:43.737Z,21.666667
2022-08-28T01:15:19.464Z,21.981818
2022-08-28T01:20:20.264Z,21.744444
2022-08-28T01:25:19.624Z,21.225000
2022-08-28T01:30:19.518Z,20.636364
2022-08-28T01:35:19.587Z,20.266667
2022-08-28T01:40:19.827Z,20.037500
2022-08-28T01:45:19.535Z,20.680000
2022-08-28T01:50:19.535Z,21.681818
2022-08-28T01:55:21.559Z,21.855556
2022-08-28T02:00:19.580Z,21.500000
2022-08-28T02:05:19.677Z,21.153846
2022-08-28T02:10:20.496Z,20.650000
2022-08-28T02:15:19.663Z,20.200000
2022-08-28T02:20:19.874Z,20.090000
2022-08-28T02:25:19.532Z,19.925000
2022-08-28T02:30:19.585Z,19.770000
2022-08-28T02:35:32.222Z,19.730769
2022-08-28T02:40:20.180Z,20.144444
2022-08-28T02:45:20.240Z,21.100000
2022-08-28T02:50:20.177Z,21.511111
2022-08-28T02:55:20.051Z,21.311111
2022-08-28T03:00:19.984Z,21.200000
2022-08-28T03:05:20.179Z,21.290909
2022-08-28T03:10:19.964Z,21.600000
2022-08-28T03:15:32.080Z,21.410000
2022-08-28T03:20:20.010Z,20.820000
2022-08-28T03:25:20.671Z,20.700000
2022-08-28T03:30:32.097Z,20.700000
2022-08-28T03:35:20.189Z,20.584615
2022-08-28T03:40:20.587Z,20.300000
2022-08-28T03:45:20.411Z,19.900000
2022-08-28T03:50:20.462Z,19.700000
2022-08-28T03:55:20.232Z,19.645455
2022-08-28T04:00:32.137Z,19.475000
2022-08-28T04:05:20.146Z,19.466667
2022-08-28T04:10:20.251Z,19.772727
2022-08-28T04:15:20.291Z,20.245455
2022-08-28T04:20:20.365Z,20.816667
2022-08-28T04:25:32.249Z,21.127273
2022-08-28T04:30:32.244Z,21.233333
2022-08-28T04:35:20.247Z,21.781818
2022-08-28T04:40:32.206Z,22.854545
2022-08-28T04:45:20.140Z,23.833333
2022-08-28T04:50:20.137Z,24.336364
2022-08-28T04:55:33.789Z,24.470000
2022-08-28T05:00:20.234Z,24.554545
2022-08-28T05:05:20.191Z,24.888889
2022-08-28T05:10:20.222Z,25.412500
2022-08-28T05:15:20.168Z,25.944444
2022-08-28T05:20:32.431Z,26.180000
2022-08-28T05:25:20.138Z,27.809091
2022-08-28T05:30:21.030Z,29.250000
2022-08-28T05:36:20.586Z,30.130000
2022-08-28T05:40:20.395Z,30.587500
2022-08-28T05:45:20.266Z,30.390000
2022-08-28T05:50:20.306Z,29.145455
2022-08-28T05:55:20.267Z,27.784615
2022-08-28T06:00:20.382Z,27.114286
2022-08-28T06:05:20.170Z,26.591667
2022-08-28T06:10:20.265Z,26.290000
2022-08-28T06:15:20.924Z,26.127273
2022-08-28T06:20:20.303Z,26.100000
2022-08-28T06:25:20.345Z,26.100000
2022-08-28T06:30:20.161Z,26.175000
2022-08-28T06:35:20.206Z,26.257143
2022-08-28T06:40:56.590Z,26.475000
2022-08-28T06:45:33.109Z,26.883333
2022-08-28T06:50:32.282Z,27.300000
2022-08-28T06:55:20.333Z,27.610000
2022-08-28T07:00:20.325Z,27.863636
2022-08-28T07:05:20.222Z,28.407692
2022-08-28T07:10:21.227Z,29.320000
2022-08-28T07:15:20.328Z,29.966667
2022-08-28T07:20:20.250Z,29.810000
2022-08-28T07:25:20.489Z,29.309091
2022-08-28T07:30:20.308Z,28.970000
2022-08-28T07:35:20.340Z,28.681818
2022-08-28T07:40:32.550Z,28.366667
2022-08-28T07:45:20.763Z,28.300000
2022-08-28T07:50:20.458Z,28.300000
2022-08-28T07:55:32.536Z,28.354545
2022-08-28T08:01:44.338Z,28.500000
2022-08-28T08:05:32.514Z,28.400000
2022-08-28T08:10:20.771Z,27.920000
2022-08-28T08:15:20.373Z,27.800000
2022-08-28T08:20:20.539Z,27.825000
2022-08-28T08:25:20.713Z,27.791667
2022-08-28T08:30:20.309Z,27.566667
2022-08-28T08:35:32.404Z,27.512500
2022-08-28T08:40:32.786Z,27.780000
2022-08-28T08:45:20.318Z,27.910000
2022-08-28T08:50:20.558Z,28.000000
2022-08-28T08:55:20.367Z,27.969231
2022-08-28T09:00:20.321Z,28.050000
2022-08-28T09:05:20.957Z,28.046154
2022-08-28T09:10:20.496Z,27.950000
2022-08-28T09:15:20.493Z,27.820000
2022-08-28T09:20:21.419Z,27.875000
2022-08-28T09:25:20.599Z,28.041667
2022-08-28T09:30:20.314Z,28.200000
2022-08-28T09:35:20.706Z,28.200000
2022-08-28T09:40:20.645Z,28.250000
2022-08-28T09:45:20.549Z,28.200000
2022-08-28T09:50:20.395Z,28.200000
2022-08-28T09:55:22.861Z,28.190000
2022-08-28T10:00:20.444Z,28.390909
2022-08-28T10:05:20.467Z,28.410000
2022-08-28T10:10:20.476Z,28.510000
2022-08-28T10:15:23.517Z,28.600000
2022-08-28T10:20:20.404Z,28.509091
2022-08-28T10:25:20.636Z,28.290000
2022-08-28T10:30:20.662Z,28.200000
2022-08-28T10:35:20.488Z,28.258333
2022-08-28T10:40:20.940Z,28.418182
2022-08-28T10:45:20.488Z,28.630000
2022-08-28T10:50:21.260Z,28.566667
2022-08-28T10:55:20.552Z,28.427273
2022-08-28T11:00:27.623Z,28.441667
2022-08-28T11:05:20.544Z,28.581818
2022-08-28T11:10:21.543Z,28.700000
2022-08-28T11:15:20.449Z,28.490000
2022-08-28T11:20:20.497Z,28.072727
2022-08-28T11:25:26.573Z,27.800000
2022-08-28T11:30:22.276Z,27.700000
2022-08-28T11:35:20.463Z,27.577778
2022-08-28T11:40:20.913Z,27.477778
2022-08-28T11:45:21.431Z,27.310000
2022-08-28T11:50:22.817Z,27.222222
2022-08-28T11:55:20.504Z,27.100000
2022-08-28T12:00:20.599Z,27.009091
2022-08-28T12:05:20.745Z,26.850000
2022-08-28T12:10:23.041Z,27.050000
2022-08-28T12:15:20.765Z,27.336364
2022-08-28T12:20:20.606Z,27.381818
2022-08-28T12:25:20.950Z,27.058333
2022-08-28T12:30:20.497Z,27.000000
2022-08-28T12:35:20.571Z,27.209091
2022-08-28T12:40:20.575Z,27.400000
2022-08-28T12:45:21.700Z,27.400000
2022-08-28T12:50:23.541Z,27.400000
2022-08-28T12:55:24.314Z,27.461538
2022-08-28T13:00:20.748Z,27.500000
2022-08-28T13:05:21.446Z,27.470000
2022-08-28T13:10:24.690Z,27.400000
2022-08-28T13:15:24.446Z,27.507692
2022-08-28T13:20:20.537Z,27.645455
2022-08-28T13:25:22.519Z,27.466667
2022-08-28T13:30:25.596Z,27.210000
2022-08-28T13:35:28.820Z,27.070000
2022-08-28T13:40:53.490Z,26.950000
2022-08-28T13:45:22.794Z,26.800000
2022-08-28T13:50:20.704Z,26.650000
2022-08-28T13:55:20.628Z,26.700000
2022-08-28T14:00:20.749Z,26.800000
2022-08-28T14:05:23.141Z,27.010000
2022-08-28T14:10:20.643Z,27.050000
2022-08-28T14:15:20.645Z,27.000000
2022-08-28T14:20:20.959Z,27.000000
2022-08-28T14:25:24.014Z,27.169231
2022-08-28T14:30:20.914Z,27.175000
2022-08-28T14:35:20.644Z,26.918182
2022-08-28T14:40:21.253Z,26.780000
2022-08-28T14:45:24.683Z,26.770000
2022-08-28T14:50:27.958Z,26.888889
2022-08-28T14:55:20.567Z,26.788889
2022-08-28T15:00:21.543Z,26.654545
2022-08-28T15:05:20.812Z,26.700000
2022-08-28T15:10:20.688Z,26.800000
2022-08-28T15:15:20.201Z,26.750000
2022-08-28T15:20:22.314Z,26.560000
2022-08-28T15:25:20.626Z,26.458333
2022-08-28T15:30:20.615Z,26.330000
2022-08-28T15:35:20.756Z,26.208333
2022-08-28T15:40:22.928Z,26.100000
2022-08-28T15:45:20.658Z,26.000000
2022-08-28T15:50:20.605Z,25.954545
2022-08-28T15:55:19.916Z,25.876923
2022-08-28T16:00:23.216Z,25.777778
2022-08-28T16:05:21.957Z,25.640000
2022-08-28T16:10:29.247Z,25.560000
2022-08-28T16:15:21.458Z,25.488889
2022-08-28T16:20:23.488Z,25.377778
2022-08-28T16:25:20.597Z,25.258333
2022-08-28T16:30:20.849Z,25.140000
2022-08-28T16:35:20.766Z,25.077778
2022-08-28T16:40:20.841Z,25.000000
2022-08-28T16:45:20.550Z,25.000000
2022-08-28T16:50:20.825Z,25.000000
2022-08-28T16:55:21.142Z,25.000000
2022-08-28T17:00:20.836Z,25.000000
2022-08-28T17:05:20.896Z,24.954545
2022-08-28T17:10:20.762Z,24.900000
2022-08-28T17:15:21.486Z,24.900000
2022-08-28T17:20:20.792Z,24.900000
2022-08-28T17:25:28.161Z,24.900000
2022-08-28T17:30:20.790Z,24.900000
2022-08-28T17:35:22.640Z,24.810000
2022-08-28T17:40:20.830Z,24.780000
2022-08-28T17:45:28.843Z,24.700000
2022-08-28T17:50:20.560Z,24.700000
2022-08-28T17:55:22.709Z,24.700000
2022-08-28T18:00:25.786Z,24.700000
2022-08-28T18:05:20.919Z,24.700000
2022-08-28T18:10:20.711Z,24.700000
2022-08-28T18:15:23.081Z,24.633333
2022-08-28T18:20:20.759Z,24.550000
2022-08-28T18:25:20.801Z,24.500000
2022-08-28T18:30:21.024Z,24.500000
2022-08-28T18:35:31.702Z,24.500000
2022-08-28T18:40:21.646Z,24.500000
2022-08-28T18:45:33.085Z,24.469231
2022-08-28T18:50:21.039Z,24.400000
2022-08-28T18:55:20.877Z,24.318182
2022-08-28T19:00:20.664Z,24.300000
2022-08-28T19:05:20.814Z,24.300000
2022-08-28T19:10:32.534Z,24.218182
2022-08-28T19:15:24.506Z,24.133333
2022-08-28T19:20:20.584Z,24.100000
2022-08-28T19:25:27.816Z,24.100000
2022-08-28T19:30:22.145Z,24.100000
2022-08-28T19:35:20.705Z,24.100000
2022-08-28T19:40:28.538Z,24.100000
2022-08-28T19:45:20.640Z,24.027273
2022-08-28T19:50:22.620Z,24.000000
2022-08-28T19:55:20.721Z,24.000000
2022-08-28T20:00:20.755Z,24.000000
2022-08-28T20:05:20.714Z,24.000000
2022-08-28T20:10:22.800Z,23.900000
2022-08-28T20:15:25.814Z,23.900000
2022-08-28T20:20:30.082Z,23.900000
2022-08-28T20:25:20.553Z,23.900000
2022-08-28T20:30:23.771Z,23.863636
2022-08-28T20:35:22.037Z,23.800000
2022-08-28T20:40:20.772Z,23.750000
2022-08-28T20:45:20.986Z,23.700000
2022-08-28T20:50:20.910Z,23.700000
2022-08-28T20:55:20.626Z,23.700000
2022-08-28T21:00:20.615Z,23.758333
2022-08-28T21:05:21.383Z,23.800000
2022-08-28T21:10:20.655Z,23.800000
2022-08-28T21:15:20.649Z,23.753846
2022-08-28T21:20:20.637Z,23.727273
2022-08-28T21:25:22.044Z,23.800000
2022-08-28T21:30:21.371Z,23.890909
2022-08-28T21:35:28.189Z,23.900000
2022-08-28T21:40:20.730Z,23.820000
2022-08-28T21:45:22.527Z,23.800000
2022-08-28T21:50:21.039Z,23.800000
2022-08-28T21:55:20.689Z,23.800000
2022-08-28T22:00:20.737Z,23.800000
2022-08-28T22:05:22.803Z,23.800000
2022-08-28T22:10:20.647Z,23.800000
2022-08-28T22:15:21.389Z,23.881818
2022-08-28T22:20:20.563Z,24.000000
2022-08-28T22:25:23.442Z,24.000000
2022-08-28T22:30:20.899Z,24.022222
2022-08-28T22:35:20.829Z,24.025000
2022-08-28T22:40:20.734Z,24.100000
2022-08-28T22:45:23.700Z,24.100000
2022-08-28T22:50:20.727Z,24.081818
2022-08-28T22:55:21.247Z,24.000000
2022-08-28T23:00:20.871Z,24.000000
2022-08-28T23:05:20.825Z,24.000000
2022-08-28T23:10:32.085Z,23.940000
2022-08-28T23:15:20.750Z,23.900000
2022-08-28T23:20:21.516Z,23.818182
2022-08-28T23:25:21.870Z,23.800000
2022-08-28T23:30:20.808Z,23.800000
2022-08-28T23:35:20.827Z,23.690909
2022-08-28T23:40:22.265Z,23.533333
2022-08-28T23:45:20.847Z,23.500000
2022-08-28T23:50:20.780Z,23.410000
2022-08-28T23:55:21.044Z,23.490909
